createdAt,value
2023-05-22T00:00:35.756Z,15.43
2023-05-22T00:03:39.163Z,15.45
2023-05-22T00:06:42.894Z,15.38
2023-05-22T00:09:46.600Z,15.32
2023-05-22T00:12:49.137Z,15.29
2023-05-22T00:15:52.099Z,15.18
2023-05-22T00:18:55.683Z,15.21
2023-05-22T00:21:58.567Z,15.25
2023-05-22T00:25:05.021Z,15.27
2023-05-22T00:28:07.806Z,15.27
2023-05-22T00:31:10.328Z,15.32
2023-05-22T00:34:13.119Z,15.30
2023-05-22T00:37:15.709Z,15.23
2023-05-22T00:40:18.712Z,15.15
2023-05-22T00:43:21.581Z,15.06
2023-05-22T00:46:24.551Z,15.15
2023-05-22T00:49:27.384Z,15.07
2023-05-22T00:52:30.524Z,15.01
2023-05-22T00:55:33.085Z,14.94
2023-05-22T00:58:35.830Z,14.78
2023-05-22T01:01:42.234Z,14.91
2023-05-22T01:04:48.542Z,14.89
2023-05-22T01:07:51.699Z,14.98
2023-05-22T01:11:02.807Z,14.98
2023-05-22T01:14:10.927Z,14.96
2023-05-22T01:17:35.640Z,14.94
2023-05-22T01:20:44.161Z,14.87
2023-05-22T01:24:11.681Z,14.84
2023-05-22T01:27:20.241Z,14.79
2023-05-22T01:30:54.052Z,14.72
2023-05-22T01:33:58.602Z,14.66
2023-05-22T01:37:02.134Z,14.64
2023-05-22T01:40:06.446Z,14.60
2023-05-22T01:43:09.380Z,14.55
2023-05-22T01:46:12.012Z,14.56
2023-05-22T01:49:15.452Z,14.50
2023-05-22T01:52:38.682Z,14.51
2023-05-22T01:56:00.988Z,14.47
2023-05-22T01:59:41.642Z,14.44
2023-05-22T02:02:55.781Z,14.45
2023-05-22T02:06:00.496Z,14.54
2023-05-22T02:09:03.432Z,14.58
2023-05-22T02:12:07.131Z,14.58
2023-05-22T02:15:09.909Z,14.61
2023-05-22T02:18:16.422Z,14.53
2023-05-22T02:21:19.086Z,14.55
2023-05-22T02:24:23.600Z,14.58
2023-05-22T02:27:26.826Z,14.55
2023-05-22T02:30:30.416Z,14.52
2023-05-22T02:33:33.335Z,14.49
2023-05-22T02:36:37.333Z,14.45
2023-05-22T02:39:40.025Z,14.49
2023-05-22T02:42:42.907Z,14.44
2023-05-22T02:45:45.915Z,14.35
2023-05-22T02:48:48.672Z,14.35
2023-05-22T02:51:51.238Z,14.35
2023-05-22T02:54:54.101Z,14.29
2023-05-22T02:57:56.834Z,14.26
2023-05-22T03:01:00.888Z,14.29
2023-05-22T03:04:03.449Z,14.30
2023-05-22T03:07:07.299Z,14.24
2023-05-22T03:10:10.042Z,14.21
2023-05-22T03:13:13.032Z,14.18
2023-05-22T03:16:15.654Z,14.19
2023-05-22T03:19:19.685Z,14.19
2023-05-22T03:22:23.164Z,14.29
2023-05-22T03:25:26.120Z,14.31
2023-05-22T03:28:28.573Z,14.33
2023-05-22T03:31:33.315Z,14.28
2023-05-22T03:34:36.990Z,14.24
2023-05-22T03:37:40.129Z,14.21
2023-05-22T03:40:42.733Z,14.26
2023-05-22T03:43:46.345Z,14.29
2023-05-22T03:46:48.955Z,14.34
2023-05-22T03:49:51.860Z,14.35
2023-05-22T03:52:54.471Z,14.38
2023-05-22T03:55:59.731Z,14.48
2023-05-22T03:59:02.241Z,14.60
2023-05-22T04:02:05.441Z,14.65
2023-05-22T04:05:09.440Z,14.69
2023-05-22T04:08:12.040Z,14.74
2023-05-22T04:11:15.998Z,14.88
2023-05-22T04:14:18.642Z,15.19
2023-05-22T04:17:22.146Z,15.52
2023-05-22T04:20:24.801Z,15.82
2023-05-22T04:23:27.613Z,16.05
2023-05-22T04:26:32.048Z,16.26
2023-05-22T04:29:36.546Z,16.38
2023-05-22T04:32:39.115Z,16.58
2023-05-22T04:35:42.392Z,16.66
2023-05-22T04:38:44.918Z,16.89
2023-05-22T04:41:47.668Z,16.92
2023-05-22T04:44:53.102Z,16.87
2023-05-22T04:47:56.376Z,16.82
2023-05-22T04:50:59.000Z,16.66
2023-05-22T04:54:01.827Z,16.68
2023-05-22T04:57:04.997Z,16.70
2023-05-22T05:00:08.396Z,16.83
2023-05-22T05:03:11.810Z,16.93
2023-05-22T05:06:14.790Z,17.02
2023-05-22T05:09:17.589Z,17.08
2023-05-22T05:12:20.408Z,17.20
2023-05-22T05:15:23.815Z,17.35
2023-05-22T05:18:28.141Z,17.39
2023-05-22T05:21:31.460Z,17.55
2023-05-22T05:24:35.403Z,17.74
2023-05-22T05:27:39.088Z,17.92
2023-05-22T05:30:42.226Z,18.04
2023-05-22T05:33:45.197Z,18.09
2023-05-22T05:36:47.990Z,18.18
2023-05-22T05:39:51.029Z,18.24
2023-05-22T05:42:53.780Z,18.31
2023-05-22T05:45:58.333Z,18.42
2023-05-22T05:49:06.492Z,18.53
2023-05-22T05:52:09.072Z,18.68
2023-05-22T05:55:12.150Z,18.78
2023-05-22T05:58:15.023Z,18.79
2023-05-22T06:01:20.317Z,18.96
2023-05-22T06:04:23.915Z,19.07
2023-05-22T06:07:28.735Z,19.22
2023-05-22T06:10:31.851Z,19.43
2023-05-22T06:13:34.641Z,19.49
2023-05-22T06:16:37.583Z,19.45
2023-05-22T06:19:41.165Z,19.44
2023-05-22T06:22:44.029Z,19.55
2023-05-22T06:25:46.649Z,19.55
2023-05-22T06:28:50.652Z,19.72
2023-05-22T06:31:54.164Z,19.75
2023-05-22T06:34:57.583Z,19.70
2023-05-22T06:38:00.764Z,19.91
2023-05-22T06:41:04.357Z,19.85
2023-05-22T06:44:06.865Z,19.86
2023-05-22T06:47:13.080Z,19.91
2023-05-22T06:50:17.077Z,20.10
2023-05-22T06:53:19.846Z,20.25
2023-05-22T06:56:22.909Z,20.36
2023-05-22T06:59:26.889Z,20.44
2023-05-22T07:02:31.821Z,20.68
2023-05-22T07:05:36.939Z,20.77
2023-05-22T07:08:40.311Z,21.09
2023-05-22T07:11:44.003Z,21.21
2023-05-22T07:14:47.456Z,21.69
2023-05-22T07:17:50.520Z,21.86
2023-05-22T07:20:53.627Z,22.05
2023-05-22T07:23:58.050Z,22.69
2023-05-22T07:27:01.283Z,23.80
2023-05-22T07:30:04.503Z,25.14
2023-05-22T07:33:07.593Z,25.70
2023-05-22T07:36:10.710Z,26.83
2023-05-22T07:39:13.952Z,27.09
2023-05-22T07:42:16.760Z,27.76
2023-05-22T07:45:20.485Z,27.63
2023-05-22T07:48:23.813Z,28.58
2023-05-22T07:51:26.528Z,28.15
2023-05-22T07:54:29.725Z,28.35
2023-05-22T07:57:36.724Z,28.63
2023-05-22T08:00:42.589Z,28.56
2023-05-22T08:03:45.454Z,29.64
2023-05-22T08:06:48.228Z,28.80
2023-05-22T08:09:51.238Z,29.91
2023-05-22T08:12:53.788Z,29.31
2023-05-22T08:16:00.244Z,29.06
2023-05-22T08:19:03.984Z,29.68
2023-05-22T08:22:06.800Z,29.06
2023-05-22T08:25:09.714Z,31.22
2023-05-22T08:28:12.459Z,31.08
2023-05-22T08:31:15.063Z,31.45
2023-05-22T08:34:18.029Z,30.14
2023-05-22T08:37:21.351Z,32.56
2023-05-22T08:40:24.429Z,30.88
2023-05-22T08:43:28.537Z,32.54
2023-05-22T08:46:32.454Z,28.93
2023-05-22T08:49:35.639Z,31.88
2023-05-22T08:52:51.662Z,30.79
2023-05-22T08:55:54.633Z,32.85
2023-05-22T08:58:57.715Z,31.35
2023-05-22T09:02:00.234Z,32.46
2023-05-22T09:05:05.378Z,32.83
2023-05-22T09:08:19.248Z,32.75
2023-05-22T09:11:23.113Z,35.01
2023-05-22T09:14:25.806Z,33.65
2023-05-22T09:17:28.699Z,33.29
2023-05-22T09:20:40.798Z,32.98
2023-05-22T09:23:43.813Z,32.25
2023-05-22T09:26:46.403Z,34.29
2023-05-22T09:29:55.438Z,33.99
2023-05-22T09:32:58.656Z,33.16
2023-05-22T09:36:01.627Z,33.19
2023-05-22T09:39:04.736Z,33.54
2023-05-22T09:42:09.804Z,34.81
2023-05-22T09:45:12.987Z,34.23
2023-05-22T09:48:17.213Z,35.74
2023-05-22T09:51:22.950Z,35.37
2023-05-22T09:54:26.407Z,35.93
2023-05-22T09:57:33.408Z,35.77
2023-05-22T10:00:36.853Z,35.36
2023-05-22T10:03:41.051Z,32.43
2023-05-22T10:06:46.071Z,31.61
2023-05-22T10:09:57.219Z,35.04
2023-05-22T10:13:09.139Z,34.68
2023-05-22T10:16:15.268Z,32.23
2023-05-22T10:19:18.015Z,34.31
2023-05-22T10:22:22.705Z,34.12
2023-05-22T10:25:26.108Z,32.99
2023-05-22T10:28:36.022Z,36.94
2023-05-22T10:31:43.264Z,35.61
2023-05-22T10:35:18.840Z,35.65
2023-05-22T10:38:47.110Z,35.06
2023-05-22T10:41:50.015Z,35.49
2023-05-22T10:44:53.273Z,35.68
2023-05-22T10:48:04.403Z,35.35
2023-05-22T10:51:09.818Z,34.37
2023-05-22T10:54:12.661Z,36.20
2023-05-22T10:57:17.301Z,35.55
2023-05-22T11:00:21.207Z,34.82
2023-05-22T11:03:24.231Z,34.81
2023-05-22T11:07:05.468Z,34.53
2023-05-22T11:10:08.186Z,34.67
2023-05-22T11:13:13.716Z,34.47
2023-05-22T11:16:16.209Z,34.74
2023-05-22T11:19:23.882Z,33.08
2023-05-22T11:22:32.005Z,34.36
2023-05-22T11:25:36.619Z,32.78
2023-05-22T11:28:39.461Z,34.08
2023-05-22T11:31:42.584Z,33.95
2023-05-22T11:34:45.382Z,33.47
2023-05-22T11:37:49.333Z,33.59
2023-05-22T11:40:52.222Z,34.36
2023-05-22T11:43:55.043Z,33.07
2023-05-22T11:46:57.535Z,32.41
2023-05-22T11:50:01.629Z,32.89
2023-05-22T11:53:04.252Z,32.30
2023-05-22T11:56:07.338Z,31.56
2023-05-22T11:59:09.839Z,31.42
2023-05-22T12:02:13.652Z,30.98
2023-05-22T12:05:16.814Z,29.31
2023-05-22T12:08:19.847Z,30.12
2023-05-22T12:11:23.464Z,30.55
2023-05-22T12:14:27.295Z,29.95
2023-05-22T12:17:30.112Z,29.81
2023-05-22T12:20:32.653Z,29.66
2023-05-22T12:23:35.493Z,30.52
2023-05-22T12:26:38.173Z,28.91
2023-05-22T12:29:42.116Z,30.04
2023-05-22T12:32:48.967Z,29.74
2023-05-22T12:35:54.675Z,28.85
2023-05-22T12:38:57.892Z,28.74
2023-05-22T12:42:00.690Z,29.26
2023-05-22T12:45:03.344Z,28.87
2023-05-22T12:48:06.214Z,28.71
2023-05-22T12:51:09.637Z,28.16
2023-05-22T12:54:12.415Z,28.57
2023-05-22T12:57:16.805Z,28.60
2023-05-22T13:00:19.909Z,28.10
2023-05-22T13:03:22.406Z,28.55
2023-05-22T13:06:25.216Z,28.35
2023-05-22T13:09:27.925Z,27.97
2023-05-22T13:12:32.307Z,27.82
2023-05-22T13:15:36.161Z,27.69
2023-05-22T13:18:38.868Z,27.82
2023-05-22T13:21:42.840Z,27.82
2023-05-22T13:24:45.990Z,27.66
2023-05-22T13:27:49.826Z,27.37
2023-05-22T13:30:52.632Z,27.29
2023-05-22T13:33:55.204Z,27.25
2023-05-22T13:36:57.994Z,26.98
2023-05-22T13:40:00.599Z,27.52
2023-05-22T13:43:03.399Z,27.35
2023-05-22T13:46:06.171Z,27.44
2023-05-22T13:49:08.914Z,27.60
2023-05-22T13:52:11.362Z,27.58
2023-05-22T13:55:14.206Z,27.51
2023-05-22T13:58:17.228Z,27.42
2023-05-22T14:01:20.000Z,27.38
2023-05-22T14:04:22.882Z,27.47
2023-05-22T14:07:25.485Z,27.29
2023-05-22T14:10:28.241Z,27.12
2023-05-22T14:13:30.810Z,27.05
2023-05-22T14:16:33.697Z,26.95
2023-05-22T14:19:38.407Z,26.74
2023-05-22T14:22:55.914Z,26.99
2023-05-22T14:25:59.437Z,26.84
2023-05-22T14:29:02.292Z,26.61
2023-05-22T14:32:05.289Z,26.76
2023-05-22T14:35:08.457Z,26.59
2023-05-22T14:38:10.943Z,26.73
2023-05-22T14:41:13.722Z,26.64
2023-05-22T14:44:16.479Z,26.38
2023-05-22T14:47:19.289Z,26.51
2023-05-22T14:50:21.936Z,26.46
2023-05-22T14:53:24.941Z,26.38
2023-05-22T14:56:28.332Z,26.35
2023-05-22T14:59:31.841Z,26.54
2023-05-22T15:02:34.387Z,26.41
2023-05-22T15:05:37.549Z,26.33
2023-05-22T15:08:40.292Z,26.20
2023-05-22T15:11:45.810Z,26.34
2023-05-22T15:14:48.541Z,26.09
2023-05-22T15:17:51.363Z,26.24
2023-05-22T15:20:53.978Z,26.48
2023-05-22T15:23:57.240Z,26.55
2023-05-22T15:26:59.732Z,26.48
2023-05-22T15:30:03.455Z,26.45
2023-05-22T15:33:06.030Z,26.27
2023-05-22T15:36:08.929Z,26.14
2023-05-22T15:39:11.474Z,26.16
2023-05-22T15:42:14.223Z,26.03
2023-05-22T15:45:16.721Z,26.05
2023-05-22T15:48:19.586Z,26.06
2023-05-22T15:51:22.047Z,25.78
2023-05-22T15:54:24.865Z,25.76
2023-05-22T15:57:28.801Z,25.73
2023-05-22T16:00:32.267Z,25.63
2023-05-22T16:03:35.045Z,25.76
2023-05-22T16:06:37.575Z,25.68
2023-05-22T16:09:41.842Z,25.63
2023-05-22T16:12:44.337Z,25.59
2023-05-22T16:15:47.124Z,25.52
2023-05-22T16:18:49.677Z,25.59
2023-05-22T16:21:52.524Z,25.46
2023-05-22T16:24:54.997Z,25.45
2023-05-22T16:27:57.757Z,25.32
2023-05-22T16:31:00.446Z,25.27
2023-05-22T16:34:03.680Z,25.24
2023-05-22T16:37:06.184Z,25.28
2023-05-22T16:40:09.465Z,25.17
2023-05-22T16:43:13.770Z,25.12
2023-05-22T16:46:16.908Z,25.11
2023-05-22T16:49:19.411Z,25.10
2023-05-22T16:52:23.648Z,25.11
2023-05-22T16:55:26.084Z,25.02
2023-05-22T16:58:29.210Z,25.02
2023-05-22T17:01:32.732Z,24.90
2023-05-22T17:04:35.512Z,24.84
2023-05-22T17:07:38.209Z,24.81
2023-05-22T17:10:41.728Z,24.77
2023-05-22T17:13:44.243Z,24.70
2023-05-22T17:16:47.760Z,24.68
2023-05-22T17:19:50.301Z,24.55
2023-05-22T17:22:53.108Z,24.43
2023-05-22T17:25:55.628Z,24.35
2023-05-22T17:28:58.377Z,24.27
2023-05-22T17:32:01.300Z,24.14
2023-05-22T17:35:06.483Z,24.04
2023-05-22T17:38:09.302Z,24.03
2023-05-22T17:41:12.097Z,23.95
2023-05-22T17:44:14.564Z,23.99
2023-05-22T17:47:18.353Z,24.03
2023-05-22T17:50:21.154Z,24.01
2023-05-22T17:53:23.915Z,23.84
2023-05-22T17:56:26.717Z,23.71
2023-05-22T17:59:30.665Z,23.50
2023-05-22T18:02:33.377Z,23.25
2023-05-22T18:05:36.283Z,23.08
2023-05-22T18:08:40.029Z,22.93
2023-05-22T18:11:42.787Z,22.76
2023-05-22T18:14:46.080Z,22.70
2023-05-22T18:17:48.857Z,22.58
2023-05-22T18:20:51.339Z,22.44
2023-05-22T18:23:55.242Z,22.30
2023-05-22T18:26:57.747Z,22.18
2023-05-22T18:30:00.553Z,21.98
2023-05-22T18:33:03.853Z,21.84
2023-05-22T18:36:06.766Z,21.72
2023-05-22T18:39:09.387Z,21.57
2023-05-22T18:42:12.127Z,21.46
2023-05-22T18:45:14.722Z,21.34
2023-05-22T18:48:17.500Z,21.32
2023-05-22T18:51:20.136Z,21.04
2023-05-22T18:54:22.866Z,20.81
2023-05-22T18:57:25.451Z,20.51
2023-05-22T19:00:28.362Z,20.29
2023-05-22T19:03:31.236Z,20.17
2023-05-22T19:06:34.354Z,19.89
2023-05-22T19:09:37.206Z,19.72
2023-05-22T19:12:40.007Z,19.62
2023-05-22T19:15:42.551Z,19.53
2023-05-22T19:18:45.458Z,19.49
2023-05-22T19:21:48.029Z,19.48
2023-05-22T19:24:51.231Z,19.40
2023-05-22T19:27:53.826Z,19.41
2023-05-22T19:30:58.628Z,19.34
2023-05-22T19:34:01.704Z,19.25
2023-05-22T19:37:04.594Z,19.17
2023-05-22T19:40:12.524Z,19.06
2023-05-22T19:43:15.413Z,19.04
2023-05-22T19:46:17.977Z,18.99
2023-05-22T19:49:20.816Z,18.89
2023-05-22T19:55:26.898Z,18.80
2023-05-22T19:58:29.433Z,18.74
2023-05-22T20:01:32.322Z,18.68
2023-05-22T20:04:35.989Z,18.65
2023-05-22T20:07:42.126Z,18.61
2023-05-22T20:10:47.995Z,18.54
2023-05-22T20:13:54.472Z,18.56
2023-05-22T20:16:59.009Z,18.49
2023-05-22T20:20:01.605Z,18.44
2023-05-22T20:23:04.553Z,18.38
2023-05-22T20:26:07.032Z,18.32
2023-05-22T20:29:09.807Z,18.23
2023-05-22T20:32:12.567Z,18.16
2023-05-22T20:35:18.807Z,18.00
2023-05-22T20:38:22.545Z,17.89
2023-05-22T20:41:25.423Z,17.78
2023-05-22T20:44:28.621Z,17.65
2023-05-22T20:47:31.764Z,17.51
2023-05-22T20:50:36.986Z,17.50
2023-05-22T20:53:42.155Z,17.41
2023-05-22T20:56:44.772Z,17.35
2023-05-22T20:59:47.610Z,17.40
2023-05-22T21:02:50.576Z,17.40
2023-05-22T21:05:53.806Z,17.50
2023-05-22T21:08:59.776Z,17.45
2023-05-22T21:12:03.951Z,17.44
2023-05-22T21:15:07.198Z,17.40
2023-05-22T21:18:10.069Z,17.32
2023-05-22T21:21:14.629Z,17.27
2023-05-22T21:24:17.440Z,17.25
2023-05-22T21:27:19.917Z,17.18
2023-05-22T21:30:22.774Z,17.09
2023-05-22T21:33:25.369Z,16.98
2023-05-22T21:36:29.753Z,16.95
2023-05-22T21:39:32.537Z,16.86
2023-05-22T21:42:45.764Z,16.80
2023-05-22T21:45:49.055Z,16.75
2023-05-22T21:48:51.839Z,16.73
2023-05-22T21:51:54.612Z,16.64
2023-05-22T21:54:58.045Z,16.65
2023-05-22T21:58:02.426Z,16.59
2023-05-22T22:01:05.132Z,16.53
2023-05-22T22:04:08.030Z,16.58
2023-05-22T22:07:11.773Z,16.54
2023-05-22T22:10:14.484Z,16.49
2023-05-22T22:13:17.048Z,16.44
2023-05-22T22:16:22.125Z,16.37
2023-05-22T22:19:24.881Z,16.30
2023-05-22T22:22:28.201Z,16.21
2023-05-22T22:25:30.724Z,16.17
2023-05-22T22:28:34.074Z,16.14
2023-05-22T22:31:37.086Z,16.12
2023-05-22T22:34:39.875Z,16.06
2023-05-22T22:37:42.860Z,16.02
2023-05-22T22:40:45.665Z,15.84
2023-05-22T22:43:48.208Z,15.82
2023-05-22T22:46:51.725Z,15.82
2023-05-22T22:49:57.240Z,15.76
2023-05-22T22:53:00.049Z,15.81
2023-05-22T22:56:02.806Z,15.75
2023-05-22T22:59:06.190Z,15.67
2023-05-22T23:02:08.887Z,15.62
2023-05-22T23:05:12.139Z,15.50
2023-05-22T23:08:14.832Z,15.52
2023-05-22T23:11:17.753Z,15.64
2023-05-22T23:14:20.460Z,15.65
2023-05-22T23:17:23.237Z,15.62
2023-05-22T23:20:25.808Z,15.63
2023-05-22T23:23:28.624Z,15.58
2023-05-22T23:26:31.805Z,15.59
2023-05-22T23:29:34.577Z,15.64
2023-05-22T23:32:37.099Z,15.60
2023-05-22T23:35:40.046Z,15.40
2023-05-22T23:38:42.803Z,15.23
2023-05-22T23:41:45.586Z,15.34
2023-05-22T23:44:48.116Z,15.41
2023-05-22T23:47:50.933Z,15.46
2023-05-22T23:50:53.460Z,15.46
2023-05-22T23:53:56.219Z,15.54
2023-05-22T23:56:58.754Z,15.55
